Latest Coastal Weather Observations for Wyndham Airport

IDW60701

Issued at 4:32 am WST Sunday 31 July 2016 (issued every 10 minutes, with the page automatically refreshed every 10 minutes)

About coastal observations | Map of coastal stations | Coastal observations for WA | Marine services | Other Formats
Station Details ID: 001006 Name: WYNDHAM AERO Lat: -15.51 Lon: 128.15 Height: 3.8 m
Data from the previous 72 hours. | See also: Recent months at Wyndham Airport
Date/Time
WST
Temp
°C
Wind Pressure Rain since
9am
mm
Weather Cloud Vis
km
Sea
Height
m
Swell
Dir  Spd
kts
Gust
kts
hPa Trend Height
m
Period
s
Dir
31/04:30am 14.0 NW 3 3 1013.7 - 0.0 - - - - - - -
31/04:00am 15.1 NW 1 3 1013.4 - 0.0 - - - - - - -
31/03:30am 15.6 CALM 0 0 1013.3 - 0.0 - - - - - - -
31/03:00am 16.0 CALM 0 0 1013.1 - 0.0 - - - - - - -
31/02:30am 16.8 WSW 1 4 1012.9 - 0.0 - - - - - - -
31/02:00am 16.9 CALM 0 0 1012.8 - 0.0 - - - - - - -
31/01:30am 16.4 NW 3 3 1012.9 - 0.0 - - - - - - -
31/01:00am 16.5 CALM 0 0 1013.0 - 0.0 - - - - - - -
31/12:30am 15.9 CALM 0 0 1013.2 - 0.0 - - - - - - -
31/12:00am 15.3 CALM 0 0 1013.3 - 0.0 - - - - - - -
 
Date/Time
WST
Temp
°C
Wind Pressure Rain since
9am
mm
Weather Cloud Vis
km
Sea
Height
m
Swell
Dir  Spd
kts
Gust
kts
hPa Trend Height
m
Period
s
Dir
30/11:30pm 15.0 CALM 0 0 1013.5 - 0.0 - - - - - - -
30/11:00pm 16.1 CALM 0 0 1013.5 - 0.0 - - - - - - -
30/10:30pm 16.4 CALM 0 0 1013.7 - 0.0 - - - - - - -
30/10:00pm 18.1 CALM 0 0 1013.8 - 0.0 - - - - - - -
30/09:30pm 18.4 CALM 0 0 1013.8 - 0.0 - - - - - - -
30/09:00pm 19.2 NW 1 4 1013.9 - 0.0 - - - - - - -
30/08:30pm 20.5 NW 2 4 1013.8 - 0.0 - - - - - - -
30/08:00pm 21.5 NW 3 4 1013.6 - 0.0 - - - - - - -
30/07:30pm 21.9 NW 3 5 1013.2 - 0.0 - - - - - - -
30/07:00pm 23.8 ENE 5 6 1012.9 - 0.0 - - - - - - -
30/06:30pm 24.5 ESE 5 5 1012.4 - 0.0 - - - - - - -
30/06:00pm 24.9 SE 6 6 1012.1 - 0.0 - - - - - - -
30/05:30pm 26.1 ESE 6 7 1011.8 - 0.0 - - - - - - -
30/05:00pm 29.6 ESE 9 13 1011.5 - 0.0 - - - - - - -
30/04:30pm 30.9 ESE 10 12 1011.4 - 0.0 - - - - - - -
30/04:00pm 31.6 ESE 9 14 1011.3 - 0.0 - - - - - - -
30/03:30pm 31.7 ESE 9 15 1011.1 - 0.0 - - - - - - -
30/03:00pm 32.3 SE 7 16 1011.2 - 0.0 - - - - - - -
30/02:30pm 32.5 SE 10 18 1011.5 - 0.0 - - - - - - -
30/02:00pm 32.3 E 8 15 1011.7 - 0.0 - - - - - - -
30/01:30pm 32.0 E 9 15 1012.1 - 0.0 - - - - - - -
30/01:00pm 31.6 ESE 9 14 1012.6 - 0.0 - - - - - - -
30/12:30pm 31.3 ESE 9 17 1013.2 - 0.0 - - - - - - -
30/12:00pm 31.0 E 12 17 1013.9 - 0.0 - - - - - - -
30/11:30am 30.6 E 13 19 1014.4 - 0.0 - - - - - - -
30/11:00am 30.8 ESE 12 17 1015.0 - 0.0 - - - - - - -
30/10:30am 30.0 ESE 14 19 1015.5 - 0.0 - - - - - - -
30/10:00am 29.2 ESE 14 21 1015.9 - 0.0 - - - - - - -
30/09:30am 28.6 ESE 17 22 1016.1 - 0.0 - - - - - - -
30/09:00am 28.6 ESE 18 24 1016.2 - 0.0 - - - - - - -
30/08:30am 27.3 ESE 19 25 1016.3 - 0.0 - - - - - - -
30/08:00am 26.3 ESE 12 17 1016.3 - 0.0 - - - - - - -
30/07:30am 23.8 CALM 0 0 1016.2 - 0.0 - - - - - - -
30/07:00am 21.6 CALM 0 0 1016.1 - 0.0 - - - - - - -
30/06:57am 20.9 CALM 0 0 1016.0 - 0.0 - - - - - - -
30/06:30am 15.8 CALM 0 0 1015.8 - 0.0 - - - - - - -
30/06:00am 12.9 CALM 0 0 1015.5 - 0.0 - - - - - - -
30/05:30am 14.2 ESE 4 4 1015.1 - 0.0 - - - - - - -
30/05:00am 18.0 ESE 3 5 1014.7 - 0.0 - - - - - - -
30/04:30am 17.0 E 3 4 1014.4 - 0.0 - - - - - - -
30/04:00am 15.5 ESE 4 5 1014.2 - 0.0 - - - - - - -
30/03:30am 15.2 CALM 0 0 1014.1 - 0.0 - - - - - - -
30/03:00am 14.5 E 1 3 1014.1 - 0.0 - - - - - - -
30/02:30am 14.7 ESE 2 4 1014.1 - 0.0 - - - - - - -
30/02:00am 16.1 NNW 3 4 1014.3 - 0.0 - - - - - - -
30/01:30am 16.8 NW 3 4 1014.2 - 0.0 - - - - - - -
30/01:00am 16.8 NW 4 4 1014.4 - 0.0 - - - - - - -
30/12:30am 17.9 NNW 3 4 1014.6 - 0.0 - - - - - - -
30/12:00am 17.4 NW 4 5 1014.8 - 0.0 - - - - - - -
 
Date/Time
WST
Temp
°C
Wind Pressure Rain since
9am
mm
Weather Cloud Vis
km
Sea
Height
m
Swell
Dir  Spd
kts
Gust
kts
hPa Trend Height
m
Period
s
Dir
29/11:30pm 16.8 CALM 0 0 1014.7 - 0.0 - - - - - - -
29/11:00pm 17.6 CALM 0 0 1014.8 - 0.0 - - - - - - -
29/10:30pm 19.3 CALM 0 0 1015.0 - 0.0 - - - - - - -
29/10:00pm 19.3 CALM 0 0 1015.1 - 0.0 - - - - - - -
29/09:30pm 20.5 CALM 0 0 1015.0 - 0.0 - - - - - - -
29/09:00pm 20.0 CALM 0 0 1015.1 - 0.0 - - - - - - -
29/08:30pm 22.4 CALM 0 0 1015.0 - 0.0 - - - - - - -
29/08:00pm 21.6 ENE 3 3 1014.9 - 0.0 - - - - - - -
29/07:30pm 24.0 E 5 6 1014.7 - 0.0 - - - - - - -
29/07:00pm 24.4 ESE 6 8 1014.4 - 0.0 - - - - - - -
29/06:30pm 25.2 SE 7 11 1014.1 - 0.0 - - - - - - -
29/06:00pm 27.3 SSE 10 13 1013.6 - 0.0 - - - - - - -
29/05:30pm 28.2 SSE 10 13 1013.2 - 0.0 - - - - - - -
29/05:00pm 28.9 SE 10 12 1012.9 - 0.0 - - - - - - -
29/04:30pm 30.2 SSE 8 14 1012.7 - 0.0 - - - - - - -
29/04:00pm 30.9 ESE 8 14 1012.6 - 0.0 - - - - - - -
29/03:30pm 31.0 SE 11 17 1012.6 - 0.0 - - - - - - -
29/03:00pm 31.8 ESE 10 14 1012.7 - 0.0 - - - - - - -
29/02:30pm 31.3 ESE 12 19 1012.8 - 0.0 - - - - - - -
29/02:00pm 31.2 ESE 13 18 1012.8 - 0.0 - - - - - - -
29/01:30pm 31.2 ESE 12 18 1013.2 - 0.0 - - - - - - -
29/01:00pm 30.9 E 14 21 1013.8 - 0.0 - - - - - - -
29/12:30pm 30.8 ESE 12 21 1014.4 - 0.0 - - - - - - -
29/12:00pm 30.3 ESE 12 17 1015.1 - 0.0 - - - - - - -
29/11:30am 29.6 ESE 15 21 1015.7 - 0.0 - - - - - - -
29/11:00am 28.9 ESE 15 20 1016.3 - 0.0 - - - - - - -
29/10:30am 28.0 ESE 15 20 1016.7 - 0.0 - - - - - - -
29/10:00am 27.8 ESE 17 21 1017.0 - 0.0 - - - - - - -
29/09:30am 27.1 ESE 16 24 1017.4 - 0.0 - - - - - - -
29/09:00am 26.9 ESE 17 24 1017.5 - 0.0 - - - - - - -
29/08:30am 25.9 ESE 18 21 1017.8 - 0.0 - - - - - - -
29/08:00am 25.3 ESE 17 22 1017.5 - 0.0 - - - - - - -
29/07:30am 24.6 ESE 12 17 1017.3 - 0.0 - - - - - - -
29/07:00am 22.5 ESE 8 11 1017.2 - 0.0 - - - - - - -
29/06:30am 19.7 ESE 5 7 1016.9 - 0.0 - - - - - - -
29/06:00am 18.2 SE 5 7 1016.6 - 0.0 - - - - - - -
29/05:30am 18.4 SE 5 7 1016.4 - 0.0 - - - - - - -
29/05:00am 18.5 E 5 6 1016.2 - 0.0 - - - - - - -
29/04:30am 19.1 E 6 7 1016.0 - 0.0 - - - - - - -
29/04:00am 20.2 E 8 9 1015.8 - 0.0 - - - - - - -
29/03:30am 18.6 E 5 6 1015.7 - 0.0 - - - - - - -
29/03:00am 17.3 E 5 6 1015.7 - 0.0 - - - - - - -
29/02:30am 19.2 E 5 6 1015.6 - 0.0 - - - - - - -
29/02:00am 18.1 E 4 5 1015.5 - 0.0 - - - - - - -
29/01:30am 17.5 ENE 3 3 1015.8 - 0.0 - - - - - - -
29/01:00am 17.6 NW 3 3 1015.8 - 0.0 - - - - - - -
29/12:30am 17.3 CALM 0 3 1015.9 - 0.0 - - - - - - -
29/12:00am 16.7 CALM 0 0 1016.0 - 0.0 - - - - - - -
 
Date/Time
WST
Temp
°C
Wind Pressure Rain since
9am
mm
Weather Cloud Vis
km
Sea
Height
m
Swell
Dir  Spd
kts
Gust
kts
hPa Trend Height
m
Period
s
Dir
28/11:30pm 17.5 CALM 0 0 1016.0 - 0.0 - - - - - - -
28/11:00pm 17.1 ENE 1 3 1016.1 - 0.0 - - - - - - -
28/10:30pm 18.2 ENE 3 4 1016.2 - 0.0 - - - - - - -
28/10:00pm 18.6 ENE 3 4 1016.4 - 0.0 - - - - - - -
28/09:30pm 18.8 ENE 3 4 1016.2 - 0.0 - - - - - - -
28/09:00pm 19.8 E 3 4 1016.1 - 0.0 - - - - - - -
28/08:30pm 21.0 E 4 5 1016.1 - 0.0 - - - - - - -
28/08:00pm 21.9 ESE 4 5 1016.1 - 0.0 - - - - - - -
28/07:30pm 22.3 ESE 4 5 1015.8 - 0.0 - - - - - - -
28/07:00pm 22.4 ESE 4 5 1015.6 - 0.0 - - - - - - -
28/06:30pm 22.8 SE 7 7 1015.3 - 0.0 - - - - - - -
28/06:00pm 24.1 SE 8 10 1015.1 - 0.0 - - - - - - -
28/05:30pm 25.3 SE 8 9 1014.8 - 0.0 - - - - - - -
28/05:00pm 27.7 SSE 10 15 1014.4 - 0.0 - - - - - - -
28/04:30pm 28.7 SE 11 15 1014.2 - 0.0 - - - - - - -
28/04:00pm 29.3 SE 13 17 1014.0 - 0.0 - - - - - - -
28/03:30pm 29.8 SE 13 19 1013.9 - 0.0 - - - - - - -
28/03:00pm 30.1 SE 11 16 1013.8 - 0.0 - - - - - - -
28/02:30pm 30.6 SE 9 13 1013.9 - 0.0 - - - - - - -
28/02:00pm 30.4 SE 8 16 1014.1 - 0.0 - - - - - - -
28/01:30pm 30.6 SE 11 17 1014.4 - 0.0 - - - - - - -
28/01:00pm 29.6 SE 11 17 1014.9 - 0.0 - - - - - - -
28/12:30pm 28.8 SE 12 17 1015.6 - 0.0 - - - - - - -
28/12:00pm 29.1 SSE 11 16 1016.0 - 0.0 - - - - - - -
28/11:30am 29.4 SSE 11 15 1016.6 - 0.0 - - - - - - -
28/11:00am 28.5 SE 11 18 1017.4 - 0.0 - - - - - - -
28/10:30am 27.9 ESE 12 19 1017.9 - 0.0 - - - - - - -
28/10:00am 27.2 ESE 12 19 1018.5 - 0.0 - - - - - - -
28/09:30am 26.9 ESE 15 19 1018.8 - 0.0 - - - - - - -
28/09:00am 25.8 ESE 14 20 1019.2 - 0.0 - - - - - - -
28/08:30am 25.3 ESE 17 22 1019.3 - 0.0 - - - - - - -
28/08:00am 24.7 ESE 17 21 1019.4 - 0.0 - - - - - - -
28/07:30am 24.0 ESE 13 18 1019.2 - 0.0 - - - - - - -
28/07:00am 23.0 ESE 9 11 1019.0 - 0.0 - - - - - - -
28/06:30am 21.2 SE 7 10 1018.6 - 0.0 - - - - - - -
28/06:00am 21.4 ESE 12 15 1018.2 - 0.0 - - - - - - -
28/05:30am 21.9 ESE 15 19 1017.6 - 0.0 - - - - - - -
28/05:00am 22.3 ESE 15 19 1017.1 - 0.0 - - - - - - -

Other Formats:

Comma delimited format used in spreadsheet applications
http://www.bom.gov.au/fwo/IDW60701/IDW60701.95214.axf

JavaScript Object Notation format (JSON) in row-major order
http://www.bom.gov.au/fwo/IDW60701/IDW60701.95214.json